sensor_id;sensor_type;location;lat;lon;timestamp;P1;durP1;ratioP1;P2;durP2;ratioP2
42514;SDS011;28144;49.920;18.730;2023-08-06T00:00:09;63.33;;;28.87;;
42514;SDS011;28144;49.920;18.730;2023-08-06T00:05:20;61.88;;;30.70;;
42514;SDS011;28144;49.920;18.730;2023-08-06T00:07:49;59.58;;;28.92;;
42514;SDS011;28144;49.920;18.730;2023-08-06T00:10:15;66.90;;;30.95;;
42514;SDS011;28144;49.920;18.730;2023-08-06T00:12:41;67.43;;;30.73;;
42514;SDS011;28144;49.920;18.730;2023-08-06T00:15:07;61.00;;;29.05;;
42514;SDS011;28144;49.920;18.730;2023-08-06T00:19:59;52.13;;;25.40;;
42514;SDS011;28144;49.920;18.730;2023-08-06T00:22:31;48.95;;;26.52;;
42514;SDS011;28144;49.920;18.730;2023-08-06T00:24:59;46.83;;;26.45;;
42514;SDS011;28144;49.920;18.730;2023-08-06T00:27:25;43.60;;;25.17;;
42514;SDS011;28144;49.920;18.730;2023-08-06T00:29:51;43.53;;;24.13;;
42514;SDS011;28144;49.920;18.730;2023-08-06T00:34:43;40.28;;;22.45;;
42514;SDS011;28144;49.920;18.730;2023-08-06T00:37:09;35.72;;;21.95;;
42514;SDS011;28144;49.920;18.730;2023-08-06T00:39:34;33.90;;;20.20;;
42514;SDS011;28144;49.920;18.730;2023-08-06T00:42:00;33.30;;;20.55;;
42514;SDS011;28144;49.920;18.730;2023-08-06T00:44:26;34.95;;;20.33;;
42514;SDS011;28144;49.920;18.730;2023-08-06T00:46:52;34.20;;;20.02;;
42514;SDS011;28144;49.920;18.730;2023-08-06T00:49:18;37.67;;;20.20;;
42514;SDS011;28144;49.920;18.730;2023-08-06T00:51:44;38.00;;;20.33;;
42514;SDS011;28144;49.920;18.730;2023-08-06T00:54:10;32.30;;;20.30;;
42514;SDS011;28144;49.920;18.730;2023-08-06T00:56:36;33.28;;;20.23;;
42514;SDS011;28144;49.920;18.730;2023-08-06T00:59:03;32.65;;;19.48;;
42514;SDS011;28144;49.920;18.730;2023-08-06T01:01:29;30.90;;;18.73;;
42514;SDS011;28144;49.920;18.730;2023-08-06T01:03:55;34.90;;;18.23;;
42514;SDS011;28144;49.920;18.730;2023-08-06T01:09:00;28.70;;;18.13;;
42514;SDS011;28144;49.920;18.730;2023-08-06T01:14:28;30.15;;;17.58;;
42514;SDS011;28144;49.920;18.730;2023-08-06T01:16:58;27.65;;;17.77;;
42514;SDS011;28144;49.920;18.730;2023-08-06T01:19:24;30.98;;;17.42;;
42514;SDS011;28144;49.920;18.730;2023-08-06T01:21:49;34.22;;;17.17;;
42514;SDS011;28144;49.920;18.730;2023-08-06T01:24:15;32.43;;;17.20;;
42514;SDS011;28144;49.920;18.730;2023-08-06T01:26:55;27.48;;;16.38;;
42514;SDS011;28144;49.920;18.730;2023-08-06T01:29:49;30.00;;;16.77;;
42514;SDS011;28144;49.920;18.730;2023-08-06T01:32:23;25.65;;;16.25;;
42514;SDS011;28144;49.920;18.730;2023-08-06T01:34:49;24.23;;;14.60;;
42514;SDS011;28144;49.920;18.730;2023-08-06T01:39:44;16.55;;;13.75;;
42514;SDS011;28144;49.920;18.730;2023-08-06T01:42:10;24.30;;;14.68;;
42514;SDS011;28144;49.920;18.730;2023-08-06T01:44:35;19.10;;;13.83;;
42514;SDS011;28144;49.920;18.730;2023-08-06T01:47:01;21.90;;;14.40;;
42514;SDS011;28144;49.920;18.730;2023-08-06T01:49:26;25.20;;;14.50;;
42514;SDS011;28144;49.920;18.730;2023-08-06T01:51:52;18.98;;;12.98;;
42514;SDS011;28144;49.920;18.730;2023-08-06T01:54:18;20.67;;;14.60;;
42514;SDS011;28144;49.920;18.730;2023-08-06T01:56:45;21.77;;;14.32;;
42514;SDS011;28144;49.920;18.730;2023-08-06T01:59:12;18.50;;;13.20;;
42514;SDS011;28144;49.920;18.730;2023-08-06T02:01:38;25.35;;;14.63;;
42514;SDS011;28144;49.920;18.730;2023-08-06T02:04:04;20.80;;;13.60;;
42514;SDS011;28144;49.920;18.730;2023-08-06T02:06:29;21.73;;;13.75;;
42514;SDS011;28144;49.920;18.730;2023-08-06T02:08:55;26.58;;;12.73;;
42514;SDS011;28144;49.920;18.730;2023-08-06T02:11:21;21.20;;;14.07;;
42514;SDS011;28144;49.920;18.730;2023-08-06T02:13:46;22.33;;;14.73;;
42514;SDS011;28144;49.920;18.730;2023-08-06T02:16:12;23.48;;;14.85;;
42514;SDS011;28144;49.920;18.730;2023-08-06T02:18:38;21.70;;;14.07;;
42514;SDS011;28144;49.920;18.730;2023-08-06T02:21:04;19.00;;;13.93;;
42514;SDS011;28144;49.920;18.730;2023-08-06T02:23:29;24.10;;;13.90;;
42514;SDS011;28144;49.920;18.730;2023-08-06T02:26:02;19.58;;;12.27;;
42514;SDS011;28144;49.920;18.730;2023-08-06T02:28:29;19.65;;;12.10;;
42514;SDS011;28144;49.920;18.730;2023-08-06T02:30:55;16.00;;;11.23;;
42514;SDS011;28144;49.920;18.730;2023-08-06T02:33:20;15.10;;;9.00;;
42514;SDS011;28144;49.920;18.730;2023-08-06T02:35:46;9.65;;;7.90;;
42514;SDS011;28144;49.920;18.730;2023-08-06T02:38:12;9.53;;;7.03;;
42514;SDS011;28144;49.920;18.730;2023-08-06T02:40:44;9.60;;;6.80;;
42514;SDS011;28144;49.920;18.730;2023-08-06T02:43:10;9.35;;;7.55;;
42514;SDS011;28144;49.920;18.730;2023-08-06T02:45:36;9.30;;;7.03;;
42514;SDS011;28144;49.920;18.730;2023-08-06T02:48:02;8.97;;;6.77;;
42514;SDS011;28144;49.920;18.730;2023-08-06T02:50:28;7.55;;;6.72;;
42514;SDS011;28144;49.920;18.730;2023-08-06T02:52:54;7.87;;;7.07;;
42514;SDS011;28144;49.920;18.730;2023-08-06T02:55:19;9.20;;;6.43;;
42514;SDS011;28144;49.920;18.730;2023-08-06T02:57:45;6.97;;;6.27;;
42514;SDS011;28144;49.920;18.730;2023-08-06T03:00:11;6.25;;;5.65;;
42514;SDS011;28144;49.920;18.730;2023-08-06T03:02:37;7.07;;;5.80;;
42514;SDS011;28144;49.920;18.730;2023-08-06T03:05:03;7.55;;;4.88;;
42514;SDS011;28144;49.920;18.730;2023-08-06T03:07:29;6.68;;;5.45;;
42514;SDS011;28144;49.920;18.730;2023-08-06T03:09:54;6.07;;;5.30;;
42514;SDS011;28144;49.920;18.730;2023-08-06T03:12:20;6.87;;;5.57;;
42514;SDS011;28144;49.920;18.730;2023-08-06T03:14:46;6.15;;;4.25;;
42514;SDS011;28144;49.920;18.730;2023-08-06T03:17:11;4.20;;;3.80;;
42514;SDS011;28144;49.920;18.730;2023-08-06T03:19:37;6.32;;;4.38;;
42514;SDS011;28144;49.920;18.730;2023-08-06T03:22:03;4.70;;;4.03;;
42514;SDS011;28144;49.920;18.730;2023-08-06T03:24:29;4.35;;;3.95;;
42514;SDS011;28144;49.920;18.730;2023-08-06T03:26:54;4.47;;;3.67;;
42514;SDS011;28144;49.920;18.730;2023-08-06T03:29:20;4.38;;;3.35;;
42514;SDS011;28144;49.920;18.730;2023-08-06T03:34:12;2.97;;;2.67;;
42514;SDS011;28144;49.920;18.730;2023-08-06T03:36:38;2.93;;;2.67;;
42514;SDS011;28144;49.920;18.730;2023-08-06T03:39:03;3.20;;;2.38;;
42514;SDS011;28144;49.920;18.730;2023-08-06T03:41:30;2.42;;;2.22;;
42514;SDS011;28144;49.920;18.730;2023-08-06T03:43:55;3.53;;;2.10;;
42514;SDS011;28144;49.920;18.730;2023-08-06T03:46:21;2.50;;;1.80;;
42514;SDS011;28144;49.920;18.730;2023-08-06T03:48:47;2.20;;;1.90;;
42514;SDS011;28144;49.920;18.730;2023-08-06T03:51:12;2.50;;;2.00;;
42514;SDS011;28144;49.920;18.730;2023-08-06T03:53:38;2.03;;;1.80;;
42514;SDS011;28144;49.920;18.730;2023-08-06T03:56:04;1.93;;;1.77;;
42514;SDS011;28144;49.920;18.730;2023-08-06T03:58:29;4.30;;;1.45;;
42514;SDS011;28144;49.920;18.730;2023-08-06T04:01:01;4.23;;;1.63;;
42514;SDS011;28144;49.920;18.730;2023-08-06T04:03:28;7.57;;;1.20;;
42514;SDS011;28144;49.920;18.730;2023-08-06T04:05:54;5.75;;;1.20;;
42514;SDS011;28144;49.920;18.730;2023-08-06T04:08:20;1.08;;;0.80;;
42514;SDS011;28144;49.920;18.730;2023-08-06T04:10:49;2.13;;;1.13;;
42514;SDS011;28144;49.920;18.730;2023-08-06T04:13:15;4.53;;;1.00;;
42514;SDS011;28144;49.920;18.730;2023-08-06T04:15:40;6.10;;;1.50;;
42514;SDS011;28144;49.920;18.730;2023-08-06T04:18:06;1.90;;;0.70;;
42514;SDS011;28144;49.920;18.730;2023-08-06T04:20:32;1.47;;;0.60;;
42514;SDS011;28144;49.920;18.730;2023-08-06T04:22:57;1.48;;;0.70;;
42514;SDS011;28144;49.920;18.730;2023-08-06T04:25:23;2.23;;;1.00;;
42514;SDS011;28144;49.920;18.730;2023-08-06T04:27:49;2.95;;;1.30;;
42514;SDS011;28144;49.920;18.730;2023-08-06T04:30:15;7.20;;;1.02;;
42514;SDS011;28144;49.920;18.730;2023-08-06T04:32:41;2.30;;;0.73;;
42514;SDS011;28144;49.920;18.730;2023-08-06T04:37:33;1.00;;;0.52;;
42514;SDS011;28144;49.920;18.730;2023-08-06T04:39:58;5.07;;;0.80;;
42514;SDS011;28144;49.920;18.730;2023-08-06T04:42:24;2.70;;;1.50;;
42514;SDS011;28144;49.920;18.730;2023-08-06T04:44:50;1.52;;;1.17;;
42514;SDS011;28144;49.920;18.730;2023-08-06T04:47:16;2.17;;;1.70;;
42514;SDS011;28144;49.920;18.730;2023-08-06T04:49:42;4.33;;;1.30;;
42514;SDS011;28144;49.920;18.730;2023-08-06T04:52:07;1.27;;;1.10;;
42514;SDS011;28144;49.920;18.730;2023-08-06T04:54:33;1.00;;;0.83;;
42514;SDS011;28144;49.920;18.730;2023-08-06T04:56:59;0.80;;;0.70;;
42514;SDS011;28144;49.920;18.730;2023-08-06T04:59:24;1.40;;;0.80;;
42514;SDS011;28144;49.920;18.730;2023-08-06T05:01:50;1.38;;;0.90;;
42514;SDS011;28144;49.920;18.730;2023-08-06T05:04:16;1.00;;;0.73;;
42514;SDS011;28144;49.920;18.730;2023-08-06T05:06:42;1.10;;;0.60;;
42514;SDS011;28144;49.920;18.730;2023-08-06T05:09:07;1.47;;;0.63;;
42514;SDS011;28144;49.920;18.730;2023-08-06T05:11:33;1.20;;;0.73;;
42514;SDS011;28144;49.920;18.730;2023-08-06T05:13:59;1.00;;;0.60;;
42514;SDS011;28144;49.920;18.730;2023-08-06T05:16:24;1.77;;;0.50;;
42514;SDS011;28144;49.920;18.730;2023-08-06T05:18:50;3.07;;;0.60;;
42514;SDS011;28144;49.920;18.730;2023-08-06T05:21:16;2.35;;;1.08;;
42514;SDS011;28144;49.920;18.730;2023-08-06T05:23:42;2.63;;;0.53;;
42514;SDS011;28144;49.920;18.730;2023-08-06T05:26:08;3.28;;;0.80;;
42514;SDS011;28144;49.920;18.730;2023-08-06T05:28:34;1.80;;;0.90;;
42514;SDS011;28144;49.920;18.730;2023-08-06T05:31:03;3.15;;;1.00;;
42514;SDS011;28144;49.920;18.730;2023-08-06T05:33:29;2.50;;;0.95;;
42514;SDS011;28144;49.920;18.730;2023-08-06T05:35:55;1.95;;;0.90;;
42514;SDS011;28144;49.920;18.730;2023-08-06T05:38:21;3.03;;;0.90;;
42514;SDS011;28144;49.920;18.730;2023-08-06T05:40:47;2.03;;;0.73;;
42514;SDS011;28144;49.920;18.730;2023-08-06T05:43:13;1.58;;;0.75;;
42514;SDS011;28144;49.920;18.730;2023-08-06T05:45:38;2.58;;;0.60;;
42514;SDS011;28144;49.920;18.730;2023-08-06T05:48:04;1.53;;;0.73;;
42514;SDS011;28144;49.920;18.730;2023-08-06T05:50:30;1.95;;;0.60;;
42514;SDS011;28144;49.920;18.730;2023-08-06T05:52:55;1.40;;;0.70;;
42514;SDS011;28144;49.920;18.730;2023-08-06T05:55:21;0.40;;;0.20;;
42514;SDS011;28144;49.920;18.730;2023-08-06T05:57:47;0.37;;;0.37;;
42514;SDS011;28144;49.920;18.730;2023-08-06T06:00:13;1.00;;;0.40;;
42514;SDS011;28144;49.920;18.730;2023-08-06T06:02:38;0.28;;;0.20;;
42514;SDS011;28144;49.920;18.730;2023-08-06T06:05:04;0.40;;;0.30;;
42514;SDS011;28144;49.920;18.730;2023-08-06T06:07:30;0.77;;;0.20;;
42514;SDS011;28144;49.920;18.730;2023-08-06T06:09:56;0.43;;;0.30;;
42514;SDS011;28144;49.920;18.730;2023-08-06T06:12:21;0.60;;;0.20;;
42514;SDS011;28144;49.920;18.730;2023-08-06T06:14:47;0.73;;;0.30;;
42514;SDS011;28144;49.920;18.730;2023-08-06T06:17:13;3.40;;;0.60;;
42514;SDS011;28144;49.920;18.730;2023-08-06T06:19:39;1.95;;;0.60;;
42514;SDS011;28144;49.920;18.730;2023-08-06T06:22:05;1.80;;;0.43;;
42514;SDS011;28144;49.920;18.730;2023-08-06T06:24:31;0.90;;;0.50;;
42514;SDS011;28144;49.920;18.730;2023-08-06T06:26:56;1.10;;;0.50;;
42514;SDS011;28144;49.920;18.730;2023-08-06T06:29:22;1.27;;;0.40;;
42514;SDS011;28144;49.920;18.730;2023-08-06T06:31:48;1.67;;;0.30;;
42514;SDS011;28144;49.920;18.730;2023-08-06T06:34:14;1.63;;;0.70;;
42514;SDS011;28144;49.920;18.730;2023-08-06T06:36:39;2.20;;;0.17;;
42514;SDS011;28144;49.920;18.730;2023-08-06T06:39:05;0.80;;;0.20;;
42514;SDS011;28144;49.920;18.730;2023-08-06T06:41:30;0.93;;;0.17;;
42514;SDS011;28144;49.920;18.730;2023-08-06T06:43:58;0.32;;;0.10;;
42514;SDS011;28144;49.920;18.730;2023-08-06T06:46:24;0.40;;;0.20;;
42514;SDS011;28144;49.920;18.730;2023-08-06T06:48:49;2.20;;;0.20;;
42514;SDS011;28144;49.920;18.730;2023-08-06T06:51:15;0.93;;;0.33;;
42514;SDS011;28144;49.920;18.730;2023-08-06T06:53:41;0.88;;;0.28;;
42514;SDS011;28144;49.920;18.730;2023-08-06T06:56:06;0.13;;;0.10;;
42514;SDS011;28144;49.920;18.730;2023-08-06T06:58:32;1.05;;;0.28;;
42514;SDS011;28144;49.920;18.730;2023-08-06T07:00:58;0.10;;;0.10;;
42514;SDS011;28144;49.920;18.730;2023-08-06T07:03:24;0.40;;;0.20;;
42514;SDS011;28144;49.920;18.730;2023-08-06T07:05:49;1.53;;;0.30;;
42514;SDS011;28144;49.920;18.730;2023-08-06T07:08:15;3.53;;;0.90;;
42514;SDS011;28144;49.920;18.730;2023-08-06T07:10:41;1.10;;;0.30;;
42514;SDS011;28144;49.920;18.730;2023-08-06T07:13:08;1.65;;;0.60;;
42514;SDS011;28144;49.920;18.730;2023-08-06T07:15:34;0.88;;;0.30;;
42514;SDS011;28144;49.920;18.730;2023-08-06T07:18:00;1.10;;;0.40;;
42514;SDS011;28144;49.920;18.730;2023-08-06T07:20:26;2.95;;;0.65;;
42514;SDS011;28144;49.920;18.730;2023-08-06T07:22:54;0.70;;;0.50;;
42514;SDS011;28144;49.920;18.730;2023-08-06T07:25:20;2.73;;;0.70;;
42514;SDS011;28144;49.920;18.730;2023-08-06T07:27:46;1.30;;;0.50;;
42514;SDS011;28144;49.920;18.730;2023-08-06T07:30:11;2.00;;;0.63;;
42514;SDS011;28144;49.920;18.730;2023-08-06T07:32:37;4.90;;;0.65;;
42514;SDS011;28144;49.920;18.730;2023-08-06T07:35:03;2.00;;;0.50;;
42514;SDS011;28144;49.920;18.730;2023-08-06T07:37:29;1.48;;;0.30;;
42514;SDS011;28144;49.920;18.730;2023-08-06T07:39:55;1.08;;;0.60;;
42514;SDS011;28144;49.920;18.730;2023-08-06T07:42:21;1.60;;;0.57;;
42514;SDS011;28144;49.920;18.730;2023-08-06T07:44:54;1.50;;;0.47;;
42514;SDS011;28144;49.920;18.730;2023-08-06T07:47:21;0.75;;;0.45;;
42514;SDS011;28144;49.920;18.730;2023-08-06T07:49:47;2.63;;;0.50;;
42514;SDS011;28144;49.920;18.730;2023-08-06T07:52:13;2.47;;;0.55;;
42514;SDS011;28144;49.920;18.730;2023-08-06T07:54:39;1.30;;;0.40;;
42514;SDS011;28144;49.920;18.730;2023-08-06T07:57:05;0.98;;;0.40;;
42514;SDS011;28144;49.920;18.730;2023-08-06T07:59:31;0.93;;;0.40;;
42514;SDS011;28144;49.920;18.730;2023-08-06T08:01:57;1.15;;;0.55;;
42514;SDS011;28144;49.920;18.730;2023-08-06T08:04:23;1.53;;;0.57;;
42514;SDS011;28144;49.920;18.730;2023-08-06T08:06:49;1.17;;;0.52;;
42514;SDS011;28144;49.920;18.730;2023-08-06T08:09:14;1.60;;;0.50;;
42514;SDS011;28144;49.920;18.730;2023-08-06T08:11:41;1.42;;;0.50;;
42514;SDS011;28144;49.920;18.730;2023-08-06T08:14:07;0.70;;;0.20;;
42514;SDS011;28144;49.920;18.730;2023-08-06T08:16:33;0.88;;;0.30;;
42514;SDS011;28144;49.920;18.730;2023-08-06T08:18:58;2.10;;;0.30;;
42514;SDS011;28144;49.920;18.730;2023-08-06T08:21:24;0.30;;;0.20;;
42514;SDS011;28144;49.920;18.730;2023-08-06T08:23:50;1.27;;;0.37;;
42514;SDS011;28144;49.920;18.730;2023-08-06T08:26:16;1.08;;;0.47;;
42514;SDS011;28144;49.920;18.730;2023-08-06T08:28:42;0.93;;;0.47;;
42514;SDS011;28144;49.920;18.730;2023-08-06T08:31:08;2.70;;;0.40;;
42514;SDS011;28144;49.920;18.730;2023-08-06T08:36:00;0.70;;;0.20;;
42514;SDS011;28144;49.920;18.730;2023-08-06T08:38:26;0.50;;;0.20;;
42514;SDS011;28144;49.920;18.730;2023-08-06T08:40:52;1.77;;;0.30;;
42514;SDS011;28144;49.920;18.730;2023-08-06T08:43:21;2.83;;;0.32;;
42514;SDS011;28144;49.920;18.730;2023-08-06T08:45:49;1.95;;;0.25;;
42514;SDS011;28144;49.920;18.730;2023-08-06T08:48:16;0.30;;;0.28;;
42514;SDS011;28144;49.920;18.730;2023-08-06T08:50:42;1.27;;;0.40;;
42514;SDS011;28144;49.920;18.730;2023-08-06T08:53:10;0.77;;;0.40;;
42514;SDS011;28144;49.920;18.730;2023-08-06T08:55:37;0.75;;;0.32;;
42514;SDS011;28144;49.920;18.730;2023-08-06T08:58:03;0.73;;;0.30;;
42514;SDS011;28144;49.920;18.730;2023-08-06T09:00:29;0.40;;;0.30;;
42514;SDS011;28144;49.920;18.730;2023-08-06T09:02:55;1.30;;;0.50;;
42514;SDS011;28144;49.920;18.730;2023-08-06T09:05:21;1.58;;;0.30;;
42514;SDS011;28144;49.920;18.730;2023-08-06T09:07:48;0.52;;;0.30;;
42514;SDS011;28144;49.920;18.730;2023-08-06T09:10:16;3.75;;;0.32;;
42514;SDS011;28144;49.920;18.730;2023-08-06T09:12:43;2.05;;;0.40;;
42514;SDS011;28144;49.920;18.730;2023-08-06T09:15:10;1.50;;;0.30;;
42514;SDS011;28144;49.920;18.730;2023-08-06T09:17:36;0.73;;;0.40;;
42514;SDS011;28144;49.920;18.730;2023-08-06T09:20:12;0.95;;;0.50;;
42514;SDS011;28144;49.920;18.730;2023-08-06T09:22:38;0.60;;;0.30;;
42514;SDS011;28144;49.920;18.730;2023-08-06T09:25:04;0.93;;;0.30;;
42514;SDS011;28144;49.920;18.730;2023-08-06T09:27:35;0.88;;;0.30;;
42514;SDS011;28144;49.920;18.730;2023-08-06T09:30:02;0.20;;;0.20;;
42514;SDS011;28144;49.920;18.730;2023-08-06T09:32:48;0.45;;;0.40;;
42514;SDS011;28144;49.920;18.730;2023-08-06T09:35:17;0.40;;;0.20;;
42514;SDS011;28144;49.920;18.730;2023-08-06T09:37:43;1.50;;;0.30;;
42514;SDS011;28144;49.920;18.730;2023-08-06T09:42:56;1.52;;;0.45;;
42514;SDS011;28144;49.920;18.730;2023-08-06T09:45:23;1.75;;;0.43;;
42514;SDS011;28144;49.920;18.730;2023-08-06T09:47:49;0.40;;;0.30;;
42514;SDS011;28144;49.920;18.730;2023-08-06T09:50:18;0.40;;;0.20;;
42514;SDS011;28144;49.920;18.730;2023-08-06T09:52:45;0.40;;;0.30;;
42514;SDS011;28144;49.920;18.730;2023-08-06T09:55:12;2.28;;;0.60;;
42514;SDS011;28144;49.920;18.730;2023-08-06T09:57:41;1.73;;;0.30;;
42514;SDS011;28144;49.920;18.730;2023-08-06T10:00:08;2.25;;;0.50;;
42514;SDS011;28144;49.920;18.730;2023-08-06T10:02:37;1.30;;;0.43;;
42514;SDS011;28144;49.920;18.730;2023-08-06T10:05:04;3.65;;;0.40;;
42514;SDS011;28144;49.920;18.730;2023-08-06T10:07:30;1.50;;;0.43;;
42514;SDS011;28144;49.920;18.730;2023-08-06T10:09:56;1.35;;;0.40;;
42514;SDS011;28144;49.920;18.730;2023-08-06T10:12:22;1.20;;;0.47;;
42514;SDS011;28144;49.920;18.730;2023-08-06T10:14:50;2.20;;;0.50;;
42514;SDS011;28144;49.920;18.730;2023-08-06T10:17:19;3.80;;;0.50;;
42514;SDS011;28144;49.920;18.730;2023-08-06T10:19:47;0.98;;;0.50;;
42514;SDS011;28144;49.920;18.730;2023-08-06T10:22:14;1.25;;;0.45;;
42514;SDS011;28144;49.920;18.730;2023-08-06T10:27:27;3.00;;;0.50;;
42514;SDS011;28144;49.920;18.730;2023-08-06T10:32:58;1.48;;;0.57;;
42514;SDS011;28144;49.920;18.730;2023-08-06T10:35:33;0.80;;;0.40;;
42514;SDS011;28144;49.920;18.730;2023-08-06T10:38:05;1.70;;;0.60;;
42514;SDS011;28144;49.920;18.730;2023-08-06T10:40:32;1.25;;;0.40;;
42514;SDS011;28144;49.920;18.730;2023-08-06T10:42:59;0.98;;;0.50;;
42514;SDS011;28144;49.920;18.730;2023-08-06T10:45:26;1.42;;;0.60;;
42514;SDS011;28144;49.920;18.730;2023-08-06T10:47:54;1.88;;;0.30;;
42514;SDS011;28144;49.920;18.730;2023-08-06T10:50:21;0.47;;;0.30;;
42514;SDS011;28144;49.920;18.730;2023-08-06T10:52:47;1.70;;;0.47;;
42514;SDS011;28144;49.920;18.730;2023-08-06T10:55:14;2.63;;;0.40;;
42514;SDS011;28144;49.920;18.730;2023-08-06T10:57:40;0.88;;;0.50;;
42514;SDS011;28144;49.920;18.730;2023-08-06T11:00:06;0.40;;;0.30;;
42514;SDS011;28144;49.920;18.730;2023-08-06T11:02:34;1.05;;;0.50;;
42514;SDS011;28144;49.920;18.730;2023-08-06T11:05:07;1.13;;;0.50;;
42514;SDS011;28144;49.920;18.730;2023-08-06T11:07:34;2.40;;;0.40;;
42514;SDS011;28144;49.920;18.730;2023-08-06T11:10:21;0.60;;;0.40;;
42514;SDS011;28144;49.920;18.730;2023-08-06T11:12:46;1.08;;;0.40;;
42514;SDS011;28144;49.920;18.730;2023-08-06T11:15:12;1.15;;;0.45;;
42514;SDS011;28144;49.920;18.730;2023-08-06T11:17:39;0.70;;;0.53;;
42514;SDS011;28144;49.920;18.730;2023-08-06T11:20:05;0.82;;;0.50;;
42514;SDS011;28144;49.920;18.730;2023-08-06T11:22:31;0.52;;;0.30;;
42514;SDS011;28144;49.920;18.730;2023-08-06T11:24:58;0.32;;;0.30;;
42514;SDS011;28144;49.920;18.730;2023-08-06T11:27:26;1.67;;;0.60;;
42514;SDS011;28144;49.920;18.730;2023-08-06T11:32:18;0.75;;;0.28;;
42514;SDS011;28144;49.920;18.730;2023-08-06T11:34:43;1.80;;;0.30;;
42514;SDS011;28144;49.920;18.730;2023-08-06T11:37:09;0.82;;;0.30;;
42514;SDS011;28144;49.920;18.730;2023-08-06T11:39:36;2.45;;;0.40;;
42514;SDS011;28144;49.920;18.730;2023-08-06T11:42:03;0.45;;;0.20;;
42514;SDS011;28144;49.920;18.730;2023-08-06T11:44:31;0.85;;;0.40;;
42514;SDS011;28144;49.920;18.730;2023-08-06T11:46:58;1.65;;;0.30;;
42514;SDS011;28144;49.920;18.730;2023-08-06T11:49:46;0.73;;;0.32;;
42514;SDS011;28144;49.920;18.730;2023-08-06T11:54:39;0.50;;;0.50;;
42514;SDS011;28144;49.920;18.730;2023-08-06T11:57:05;1.10;;;0.38;;
42514;SDS011;28144;49.920;18.730;2023-08-06T11:59:31;1.08;;;0.35;;
42514;SDS011;28144;49.920;18.730;2023-08-06T12:01:56;1.27;;;0.30;;
42514;SDS011;28144;49.920;18.730;2023-08-06T12:04:22;1.63;;;0.30;;
42514;SDS011;28144;49.920;18.730;2023-08-06T12:06:48;0.88;;;0.20;;
42514;SDS011;28144;49.920;18.730;2023-08-06T12:09:14;0.10;;;0.10;;
42514;SDS011;28144;49.920;18.730;2023-08-06T12:11:39;0.98;;;0.25;;
42514;SDS011;28144;49.920;18.730;2023-08-06T12:14:05;0.47;;;0.23;;
42514;SDS011;28144;49.920;18.730;2023-08-06T12:16:31;2.58;;;0.30;;
42514;SDS011;28144;49.920;18.730;2023-08-06T12:18:56;4.20;;;0.50;;
42514;SDS011;28144;49.920;18.730;2023-08-06T12:21:22;1.67;;;0.40;;
42514;SDS011;28144;49.920;18.730;2023-08-06T12:23:48;1.43;;;0.30;;
42514;SDS011;28144;49.920;18.730;2023-08-06T12:26:14;0.77;;;0.30;;
42514;SDS011;28144;49.920;18.730;2023-08-06T12:28:39;1.00;;;0.30;;
42514;SDS011;28144;49.920;18.730;2023-08-06T12:31:05;1.35;;;0.20;;
42514;SDS011;28144;49.920;18.730;2023-08-06T12:33:30;0.67;;;0.30;;
42514;SDS011;28144;49.920;18.730;2023-08-06T12:35:56;0.45;;;0.20;;
42514;SDS011;28144;49.920;18.730;2023-08-06T12:38:23;2.83;;;0.35;;
42514;SDS011;28144;49.920;18.730;2023-08-06T12:40:49;0.30;;;0.13;;
42514;SDS011;28144;49.920;18.730;2023-08-06T12:43:15;0.50;;;0.20;;
42514;SDS011;28144;49.920;18.730;2023-08-06T12:45:41;0.20;;;0.20;;
42514;SDS011;28144;49.920;18.730;2023-08-06T12:48:06;0.43;;;0.20;;
42514;SDS011;28144;49.920;18.730;2023-08-06T12:50:34;0.65;;;0.22;;
42514;SDS011;28144;49.920;18.730;2023-08-06T12:53:01;1.95;;;0.20;;
42514;SDS011;28144;49.920;18.730;2023-08-06T12:55:27;0.30;;;0.10;;
42514;SDS011;28144;49.920;18.730;2023-08-06T12:57:52;0.97;;;0.30;;
42514;SDS011;28144;49.920;18.730;2023-08-06T13:00:18;0.47;;;0.10;;
42514;SDS011;28144;49.920;18.730;2023-08-06T13:02:43;0.30;;;0.13;;
42514;SDS011;28144;49.920;18.730;2023-08-06T13:05:09;1.55;;;0.10;;
42514;SDS011;28144;49.920;18.730;2023-08-06T13:07:35;0.37;;;0.20;;
42514;SDS011;28144;49.920;18.730;2023-08-06T13:10:01;1.30;;;0.20;;
42514;SDS011;28144;49.920;18.730;2023-08-06T13:12:26;1.03;;;0.40;;
42514;SDS011;28144;49.920;18.730;2023-08-06T13:14:52;0.47;;;0.20;;
42514;SDS011;28144;49.920;18.730;2023-08-06T13:17:18;0.93;;;0.30;;
42514;SDS011;28144;49.920;18.730;2023-08-06T13:19:44;0.13;;;0.10;;
42514;SDS011;28144;49.920;18.730;2023-08-06T13:22:10;0.95;;;0.38;;
42514;SDS011;28144;49.920;18.730;2023-08-06T13:24:35;0.20;;;0.10;;
42514;SDS011;28144;49.920;18.730;2023-08-06T13:27:01;1.20;;;0.28;;
42514;SDS011;28144;49.920;18.730;2023-08-06T13:29:28;0.20;;;0.20;;
42514;SDS011;28144;49.920;18.730;2023-08-06T13:31:54;0.80;;;0.30;;
42514;SDS011;28144;49.920;18.730;2023-08-06T13:34:20;0.90;;;0.20;;
42514;SDS011;28144;49.920;18.730;2023-08-06T13:36:45;2.00;;;0.33;;
42514;SDS011;28144;49.920;18.730;2023-08-06T13:39:11;2.60;;;0.32;;
42514;SDS011;28144;49.920;18.730;2023-08-06T13:41:37;0.30;;;0.13;;
42514;SDS011;28144;49.920;18.730;2023-08-06T13:44:04;1.08;;;0.15;;
42514;SDS011;28144;49.920;18.730;2023-08-06T13:46:30;0.87;;;0.30;;
42514;SDS011;28144;49.920;18.730;2023-08-06T13:48:56;0.35;;;0.20;;
42514;SDS011;28144;49.920;18.730;2023-08-06T13:51:22;0.20;;;0.10;;
42514;SDS011;28144;49.920;18.730;2023-08-06T13:53:48;0.43;;;0.25;;
42514;SDS011;28144;49.920;18.730;2023-08-06T13:56:13;0.33;;;0.10;;
42514;SDS011;28144;49.920;18.730;2023-08-06T13:58:43;0.47;;;0.13;;
42514;SDS011;28144;49.920;18.730;2023-08-06T14:01:12;0.23;;;0.23;;
42514;SDS011;28144;49.920;18.730;2023-08-06T14:03:38;0.82;;;0.20;;
42514;SDS011;28144;49.920;18.730;2023-08-06T14:06:04;0.30;;;0.10;;
42514;SDS011;28144;49.920;18.730;2023-08-06T14:08:30;0.38;;;0.22;;
42514;SDS011;28144;49.920;18.730;2023-08-06T14:10:55;0.40;;;0.30;;
42514;SDS011;28144;49.920;18.730;2023-08-06T14:13:21;0.43;;;0.20;;
42514;SDS011;28144;49.920;18.730;2023-08-06T14:15:47;0.32;;;0.10;;
42514;SDS011;28144;49.920;18.730;2023-08-06T14:18:14;1.60;;;0.20;;
42514;SDS011;28144;49.920;18.730;2023-08-06T14:20:40;0.25;;;0.20;;
42514;SDS011;28144;49.920;18.730;2023-08-06T14:23:09;0.50;;;0.43;;
42514;SDS011;28144;49.920;18.730;2023-08-06T14:25:35;1.48;;;0.30;;
42514;SDS011;28144;49.920;18.730;2023-08-06T14:28:01;3.20;;;0.15;;
42514;SDS011;28144;49.920;18.730;2023-08-06T14:30:27;0.60;;;0.20;;
42514;SDS011;28144;49.920;18.730;2023-08-06T14:32:52;0.82;;;0.30;;
42514;SDS011;28144;49.920;18.730;2023-08-06T14:35:18;0.50;;;0.23;;
42514;SDS011;28144;49.920;18.730;2023-08-06T14:37:44;0.30;;;0.20;;
42514;SDS011;28144;49.920;18.730;2023-08-06T14:42:36;1.10;;;0.20;;
42514;SDS011;28144;49.920;18.730;2023-08-06T14:45:02;0.50;;;0.30;;
42514;SDS011;28144;49.920;18.730;2023-08-06T14:47:29;0.77;;;0.38;;
42514;SDS011;28144;49.920;18.730;2023-08-06T14:49:54;0.50;;;0.40;;
42514;SDS011;28144;49.920;18.730;2023-08-06T14:52:21;1.75;;;0.40;;
42514;SDS011;28144;49.920;18.730;2023-08-06T14:54:47;1.50;;;0.50;;
42514;SDS011;28144;49.920;18.730;2023-08-06T14:57:13;0.60;;;0.30;;
42514;SDS011;28144;49.920;18.730;2023-08-06T14:59:39;0.70;;;0.30;;
42514;SDS011;28144;49.920;18.730;2023-08-06T15:04:31;0.80;;;0.40;;
42514;SDS011;28144;49.920;18.730;2023-08-06T15:06:57;2.33;;;0.45;;